Time;durP1;ratioP1;P1;durP2;ratioP2;P2;SDS_P1;SDS_P2;PMS_P1;PMS_P2;Temp;Humidity;BMP_temperature;BMP_pressure;BME280_temperature;BME280_humidity;BME280_pressure;Samples;Min_cycle;Max_cycle;Signal;HPM_P1;HPM_P2
2024/01/26 00:00:04;;;;;;;53.78;27.33;;;6.40;96.60;;;;;;5094944;28;20448;-56
2024/01/26 00:02:33;;;;;;;61.33;28.70;;;6.40;96.60;;;;;;5076506;28;20040;-54
2024/01/26 00:05:03;;;;;;;66.13;27.75;;;6.50;96.60;;;;;;5094819;28;20516;-51
2024/01/26 00:07:31;;;;;;;65.68;30.80;;;6.50;96.60;;;;;;5094292;28;20440;-52
2024/01/26 00:09:58;;;;;;;66.45;31.67;;;6.50;96.60;;;;;;5094966;28;20051;-53
2024/01/26 00:12:24;;;;;;;59.38;28.95;;;6.50;96.70;;;;;;5094569;28;20058;-52
2024/01/26 00:14:50;;;;;;;58.30;28.42;;;6.50;96.70;;;;;;5094096;28;20019;-56
2024/01/26 00:17:17;;;;;;;60.65;28.77;;;6.60;96.80;;;;;;5076873;28;20020;-53
2024/01/26 00:19:44;;;;;;;69.72;32.28;;;6.60;96.70;;;;;;5094848;28;20444;-52
2024/01/26 00:22:11;;;;;;;59.53;28.80;;;6.60;96.80;;;;;;5093927;28;20551;-55
2024/01/26 00:24:38;;;;;;;61.83;32.40;;;6.60;96.80;;;;;;5093348;28;20081;-53
2024/01/26 00:27:06;;;;;;;66.35;31.63;;;6.60;96.80;;;;;;5094341;28;20027;-56
2024/01/26 00:29:33;;;;;;;80.93;32.60;;;6.70;96.90;;;;;;5074686;28;20024;-56
2024/01/26 00:31:59;;;;;;;72.85;31.95;;;6.70;96.90;;;;;;5084815;28;20429;-52
2024/01/26 00:34:26;;;;;;;74.75;33.78;;;6.70;96.90;;;;;;5093946;28;20032;-56
2024/01/26 00:36:52;;;;;;;71.70;33.97;;;6.70;96.80;;;;;;5093662;28;20031;-56
2024/01/26 00:39:18;;;;;;;69.15;31.70;;;6.70;96.90;;;;;;5094405;28;20023;-56
2024/01/26 00:41:48;;;;;;;78.22;33.42;;;6.70;96.90;;;;;;5094405;28;20337;-50
2024/01/26 00:44:15;;;;;;;77.30;33.50;;;6.80;96.90;;;;;;5094067;28;20692;-50
2024/01/26 00:46:41;;;;;;;83.80;36.58;;;6.80;96.90;;;;;;5093216;28;20442;-56
2024/01/26 00:49:08;;;;;;;74.93;36.00;;;6.80;96.90;;;;;;5094070;28;20020;-55
2024/01/26 00:51:35;;;;;;;84.00;33.97;;;6.80;97.00;;;;;;5093558;28;20031;-55
2024/01/26 00:54:02;;;;;;;84.13;35.33;;;6.80;97.00;;;;;;5093695;28;20140;-55
2024/01/26 00:56:29;;;;;;;75.53;33.13;;;6.80;97.00;;;;;;5075600;28;20059;-56
2024/01/26 00:58:55;;;;;;;80.22;37.00;;;6.90;97.00;;;;;;5093977;28;20047;-56
2024/01/26 01:01:23;;;;;;;96.47;37.58;;;6.90;97.00;;;;;;5093956;28;20609;-52
2024/01/26 01:03:50;;;;;;;78.97;37.50;;;6.90;97.10;;;;;;5092779;28;20084;-55
2024/01/26 01:06:21;;;;;;;90.00;36.45;;;6.90;97.10;;;;;;5093701;28;20020;-55
2024/01/26 01:08:48;;;;;;;83.68;37.25;;;6.90;97.10;;;;;;5075264;28;20318;-55
2024/01/26 01:11:15;;;;;;;95.00;39.28;;;6.90;97.10;;;;;;5075546;28;20077;-51
2024/01/26 01:13:43;;;;;;;95.07;37.75;;;6.90;97.10;;;;;;5092897;28;20445;-49
2024/01/26 01:16:13;;;;;;;85.55;35.92;;;6.90;97.10;;;;;;5093308;28;20031;-49
2024/01/26 01:18:40;;;;;;;86.05;38.47;;;6.90;97.10;;;;;;5092678;28;20024;-51
2024/01/26 01:21:10;;;;;;;79.45;36.10;;;6.90;97.20;;;;;;5092478;28;20036;-51
2024/01/26 01:23:39;;;;;;;85.25;38.72;;;7.00;97.20;;;;;;5092673;28;20028;-51
2024/01/26 01:26:06;;;;;;;81.25;34.42;;;7.00;97.20;;;;;;5092906;28;20023;-54
2024/01/26 01:28:33;;;;;;;86.22;38.55;;;7.00;97.20;;;;;;5093034;28;20028;-53
2024/01/26 01:31:00;;;;;;;86.97;36.08;;;7.10;97.20;;;;;;5093316;28;20051;-51
2024/01/26 01:33:29;;;;;;;83.70;36.55;;;7.10;97.20;;;;;;5092744;28;20046;-55
2024/01/26 01:35:56;;;;;;;83.13;38.95;;;7.10;97.20;;;;;;5093156;28;20028;-53
2024/01/26 01:38:23;;;;;;;84.43;37.10;;;7.10;97.30;;;;;;5092852;28;20036;-56
2024/01/26 01:40:50;;;;;;;79.35;36.55;;;7.10;97.30;;;;;;5092598;28;20020;-55
2024/01/26 01:43:19;;;;;;;89.80;36.03;;;7.20;97.30;;;;;;5092840;28;20444;-52
2024/01/26 01:45:46;;;;;;;77.88;36.15;;;7.20;97.30;;;;;;5092905;28;20115;-51
2024/01/26 01:48:13;;;;;;;78.70;37.25;;;7.20;97.30;;;;;;5092224;28;20559;-52
2024/01/26 01:50:41;;;;;;;83.25;39.72;;;7.30;97.30;;;;;;5092916;28;20314;-50
2024/01/26 01:53:09;;;;;;;91.40;39.92;;;7.20;97.30;;;;;;5074691;28;20028;-55
2024/01/26 01:55:36;;;;;;;83.22;36.85;;;7.30;97.40;;;;;;5092155;28;20027;-54
2024/01/26 01:58:05;;;;;;;80.90;39.85;;;7.30;97.30;;;;;;5092427;28;20093;-53
2024/01/26 02:00:32;;;;;;;90.40;40.27;;;7.40;97.40;;;;;;5091999;28;20348;-49
2024/01/26 02:02:59;;;;;;;78.20;37.72;;;7.30;97.40;;;;;;5074508;28;20031;-55
2024/01/26 02:05:26;;;;;;;87.80;38.20;;;7.40;97.40;;;;;;5091385;28;20024;-55
2024/01/26 02:07:52;;;;;;;84.10;37.75;;;7.40;97.40;;;;;;5092453;28;20348;-55
2024/01/26 02:10:21;;;;;;;87.35;38.28;;;7.40;97.40;;;;;;5092738;28;20031;-55
2024/01/26 02:12:47;;;;;;;91.70;38.58;;;7.40;97.40;;;;;;5092402;28;20024;-54
2024/01/26 02:15:14;;;;;;;91.25;38.40;;;7.40;97.40;;;;;;5091958;28;20115;-53
2024/01/26 02:17:41;;;;;;;100.15;40.78;;;7.40;97.40;;;;;;5092365;28;20032;-50
2024/01/26 02:20:09;;;;;;;85.10;37.22;;;7.40;97.40;;;;;;5092391;28;20024;-53
2024/01/26 02:22:34;;;;;;;86.93;36.55;;;7.40;97.50;;;;;;5091761;28;20117;-55
2024/01/26 02:25:01;;;;;;;84.50;38.05;;;7.40;97.50;;;;;;5092188;28;20384;-54
2024/01/26 02:27:26;;;;;;;82.32;35.63;;;7.50;97.50;;;;;;5092048;28;20552;-56
2024/01/26 02:29:54;;;;;;;95.47;39.88;;;7.50;97.50;;;;;;5091563;28;20030;-52
2024/01/26 02:32:22;;;;;;;76.35;36.47;;;7.50;97.50;;;;;;5092336;28;20024;-56
2024/01/26 02:34:49;;;;;;;88.43;39.65;;;7.50;97.50;;;;;;5090841;28;20024;-54
2024/01/26 02:37:15;;;;;;;94.88;40.78;;;7.50;97.60;;;;;;5091194;28;20024;-55
2024/01/26 02:39:41;;;;;;;89.50;37.13;;;7.60;97.50;;;;;;5074278;28;20081;-56
2024/01/26 02:42:08;;;;;;;80.07;35.88;;;7.60;97.60;;;;;;5092215;28;20063;-57
2024/01/26 02:44:35;;;;;;;81.95;35.65;;;7.70;97.60;;;;;;5091472;28;20036;-57
2024/01/26 02:47:01;;;;;;;83.25;38.38;;;7.70;97.60;;;;;;5091558;28;20031;-57
2024/01/26 02:49:29;;;;;;;94.68;39.92;;;7.70;97.60;;;;;;5092310;28;20468;-52
2024/01/26 02:51:56;;;;;;;82.10;36.28;;;7.70;97.60;;;;;;5073747;28;20077;-56
2024/01/26 02:54:23;;;;;;;86.85;36.35;;;7.80;97.60;;;;;;5091998;28;20032;-56
2024/01/26 02:56:50;;;;;;;82.88;36.17;;;7.80;97.60;;;;;;5092082;28;20077;-56
2024/01/26 02:59:17;;;;;;;83.07;37.95;;;7.80;97.60;;;;;;5091592;28;20020;-55
2024/01/26 03:01:44;;;;;;;81.07;35.53;;;7.80;97.60;;;;;;5092105;28;20040;-57
2024/01/26 03:04:11;;;;;;;85.03;36.75;;;7.80;97.70;;;;;;5091842;28;20353;-54
2024/01/26 03:06:36;;;;;;;84.65;34.92;;;7.90;97.70;;;;;;5091268;28;20039;-55
2024/01/26 03:09:03;;;;;;;82.03;35.40;;;7.90;97.60;;;;;;5092032;28;20142;-57
2024/01/26 03:11:38;;;;;;;84.10;36.22;;;7.90;97.60;;;;;;5091272;28;20031;-54
2024/01/26 03:14:05;;;;;;;75.68;31.73;;;7.90;97.60;;;;;;5073506;28;20039;-56
2024/01/26 03:16:39;;;;;;;78.28;33.10;;;7.90;97.70;;;;;;5091782;28;20046;-56
2024/01/26 03:19:07;;;;;;;76.63;35.35;;;7.90;97.70;;;;;;5073994;28;20122;-56
2024/01/26 03:21:32;;;;;;;91.85;35.00;;;7.90;97.70;;;;;;5091171;28;20113;-55
2024/01/26 03:23:58;;;;;;;69.60;33.00;;;7.90;97.70;;;;;;5091834;28;20024;-56
2024/01/26 03:26:25;;;;;;;78.60;35.88;;;7.90;97.70;;;;;;5091730;28;20020;-54
2024/01/26 03:28:51;;;;;;;79.80;34.58;;;7.90;97.80;;;;;;5091125;28;20356;-52
2024/01/26 03:31:17;;;;;;;82.72;33.78;;;8.00;97.70;;;;;;5091760;28;20013;-56
2024/01/26 03:33:47;;;;;;;77.45;32.20;;;8.10;97.70;;;;;;5073808;28;20024;-54
2024/01/26 03:36:13;;;;;;;79.72;34.00;;;8.00;97.70;;;;;;5072679;28;20032;-56
2024/01/26 03:38:44;;;;;;;71.20;32.38;;;8.10;97.80;;;;;;5091443;28;20111;-49
2024/01/26 03:41:14;;;;;;;75.70;33.28;;;8.10;97.70;;;;;;5091542;28;20154;-55
2024/01/26 03:43:40;;;;;;;;;;;8.10;97.80;;;;;;5073501;28;20032;-56
2024/01/26 03:46:08;;;;;;;68.38;29.85;;;8.10;97.80;;;;;;5090385;28;19904;-55
2024/01/26 03:48:33;;;;;;;65.18;30.20;;;8.10;97.80;;;;;;5091057;28;20028;-55
2024/01/26 03:51:03;;;;;;;77.50;33.47;;;8.20;97.90;;;;;;5091260;28;20349;-54
2024/01/26 03:53:32;;;;;;;77.55;31.40;;;8.30;97.80;;;;;;5091074;28;20032;-56
2024/01/26 03:55:57;;;;;;;79.80;31.33;;;8.30;97.90;;;;;;5072319;28;20106;-54
2024/01/26 03:58:24;;;;;;;76.80;30.52;;;8.30;97.80;;;;;;5092118;28;20039;-55
2024/01/26 04:00:51;;;;;;;67.93;32.38;;;8.30;97.80;;;;;;5095032;28;20055;-52
2024/01/26 04:03:18;;;;;;;78.10;32.85;;;8.40;97.90;;;;;;5094822;28;20027;-56
2024/01/26 04:05:45;;;;;;;66.93;30.77;;;8.40;97.90;;;;;;5095188;28;20028;-54
2024/01/26 04:08:14;;;;;;;72.97;32.85;;;8.30;97.80;;;;;;5094919;28;20012;-54
2024/01/26 04:10:41;;;;;;;77.95;34.05;;;8.40;97.90;;;;;;5094389;28;20437;-56
2024/01/26 04:13:07;;;;;;;76.50;32.13;;;8.40;97.90;;;;;;5094776;28;20070;-52
2024/01/26 04:15:34;;;;;;;69.25;32.78;;;8.40;97.90;;;;;;5094851;28;20024;-56
2024/01/26 04:18:01;;;;;;;77.18;32.50;;;8.40;97.80;;;;;;5094463;28;20024;-56
2024/01/26 04:20:28;;;;;;;65.15;31.17;;;8.40;97.90;;;;;;5094809;28;20459;-56
2024/01/26 04:22:54;;;;;;;77.40;32.22;;;8.40;97.90;;;;;;5076788;28;20044;-52
2024/01/26 04:25:20;;;;;;;73.32;33.65;;;8.40;97.80;;;;;;5094476;28;20024;-48
2024/01/26 04:27:49;;;;;;;71.25;32.53;;;8.40;97.90;;;;;;5093815;28;20039;-53
2024/01/26 04:30:18;;;;;;;71.30;34.08;;;8.40;97.90;;;;;;5094127;28;20032;-54
2024/01/26 04:32:45;;;;;;;73.57;34.67;;;8.40;97.90;;;;;;5094338;28;20036;-52
2024/01/26 04:35:12;;;;;;;67.43;34.20;;;8.40;97.90;;;;;;5076082;28;20039;-52
2024/01/26 04:37:39;;;;;;;77.88;33.80;;;8.50;97.90;;;;;;5094214;28;20371;-51
2024/01/26 04:40:07;;;;;;;71.50;32.13;;;8.40;97.80;;;;;;5094010;28;20103;-48
2024/01/26 04:42:35;;;;;;;74.60;32.92;;;8.50;97.90;;;;;;5094324;28;20039;-54
2024/01/26 04:45:02;;;;;;;67.57;32.33;;;8.50;97.90;;;;;;5094380;28;20062;-53
2024/01/26 04:47:28;;;;;;;70.25;32.60;;;8.50;97.90;;;;;;5093635;28;20020;-55
2024/01/26 04:49:55;;;;;;;61.67;31.40;;;8.60;97.90;;;;;;5094162;28;20024;-54
2024/01/26 04:52:22;;;;;;;68.00;31.02;;;8.60;97.90;;;;;;5093613;28;20550;-53
2024/01/26 04:54:49;;;;;;;71.00;33.33;;;8.60;97.80;;;;;;5093810;28;20016;-55
2024/01/26 04:57:14;;;;;;;64.05;31.55;;;8.50;97.80;;;;;;5093489;28;20377;-50
2024/01/26 04:59:47;;;;;;;69.35;32.95;;;8.60;97.90;;;;;;5093448;28;20119;-51
2024/01/26 05:02:17;;;;;;;62.88;31.60;;;8.60;97.80;;;;;;5093933;28;20024;-48
2024/01/26 05:04:44;;;;;;;64.80;30.90;;;8.60;97.80;;;;;;5093949;28;20046;-54
2024/01/26 05:07:10;;;;;;;62.33;32.20;;;8.60;97.80;;;;;;5093953;28;20026;-53
2024/01/26 05:09:38;;;;;;;57.90;30.92;;;8.60;97.80;;;;;;5092562;28;20031;-55
2024/01/26 05:12:06;;;;;;;61.47;31.15;;;8.60;97.80;;;;;;5093595;28;20046;-52
2024/01/26 05:14:35;;;;;;;58.20;29.98;;;8.60;97.80;;;;;;5093373;28;20118;-54
2024/01/26 05:17:06;;;;;;;59.30;29.60;;;8.60;97.80;;;;;;5092945;28;20350;-55
2024/01/26 05:19:31;;;;;;;54.90;27.58;;;8.60;97.80;;;;;;5093532;28;20540;-54
2024/01/26 05:22:01;;;;;;;57.28;30.42;;;8.70;97.70;;;;;;5093255;28;20066;-54
2024/01/26 05:24:28;;;;;;;62.05;30.67;;;8.70;97.80;;;;;;5093441;28;20050;-53
2024/01/26 05:26:57;;;;;;;60.80;29.95;;;8.70;97.80;;;;;;5092449;28;20020;-53
2024/01/26 05:29:24;;;;;;;;;;;8.70;97.80;;;;;;5093844;28;20034;-55
2024/01/26 05:31:51;;;;;;;55.80;28.42;;;8.70;97.70;;;;;;5093146;28;20357;-52
2024/01/26 05:34:18;;;;;;;58.75;28.42;;;8.70;97.70;;;;;;5092853;28;20032;-52
2024/01/26 05:36:44;;;;;;;54.70;28.90;;;8.70;97.80;;;;;;5069322;28;20024;-54
2024/01/26 05:39:11;;;;;;;54.03;30.27;;;8.70;97.70;;;;;;5093285;28;20052;-51
2024/01/26 05:41:38;;;;;;;61.08;29.98;;;8.70;97.70;;;;;;5093230;28;20024;-55
2024/01/26 05:44:05;;;;;;;52.83;29.48;;;8.80;97.70;;;;;;5092560;28;20474;-50
2024/01/26 05:46:32;;;;;;;45.85;26.48;;;8.80;97.80;;;;;;5092493;28;20387;-53
2024/01/26 05:48:59;;;;;;;49.60;26.88;;;8.80;97.70;;;;;;5093105;28;20122;-52
2024/01/26 05:51:26;;;;;;;50.00;29.60;;;8.90;97.70;;;;;;5093120;28;20059;-51
2024/01/26 05:53:54;;;;;;;53.15;30.23;;;8.90;97.70;;;;;;5093042;28;20372;-55
2024/01/26 05:56:24;;;;;;;52.33;29.02;;;8.90;97.70;;;;;;5092318;28;20107;-55
2024/01/26 05:58:52;;;;;;;50.80;27.13;;;8.90;97.60;;;;;;5092488;28;20031;-55
2024/01/26 06:01:21;;;;;;;50.17;26.65;;;8.90;97.60;;;;;;5077948;28;20482;-51
2024/01/26 06:03:50;;;;;;;50.05;30.23;;;8.90;97.70;;;;;;5072555;28;20033;-56
2024/01/26 06:06:19;;;;;;;52.50;28.52;;;8.90;97.60;;;;;;5086115;28;20112;-57
2024/01/26 06:08:45;;;;;;;49.88;28.15;;;8.90;97.60;;;;;;5092299;28;20103;-55
2024/01/26 06:11:12;;;;;;;46.15;27.25;;;8.90;97.60;;;;;;5084376;28;20108;-53
2024/01/26 06:13:40;;;;;;;44.40;26.75;;;9.00;97.60;;;;;;5082455;28;20028;-56
2024/01/26 06:16:07;;;;;;;46.28;27.52;;;9.00;97.50;;;;;;5081336;28;20426;-54
2024/01/26 06:18:34;;;;;;;46.92;26.02;;;9.00;97.50;;;;;;5081374;28;20708;-56
2024/01/26 06:21:00;;;;;;;49.50;27.08;;;9.00;97.50;;;;;;5082405;28;20047;-54
2024/01/26 06:23:27;;;;;;;47.22;26.85;;;9.00;97.50;;;;;;5084714;28;20024;-56
2024/01/26 06:25:56;;;;;;;45.97;26.33;;;9.20;97.50;;;;;;5081104;28;20025;-56
2024/01/26 06:28:23;;;;;;;42.70;25.90;;;9.10;97.50;;;;;;5081561;28;20027;-58
2024/01/26 06:30:49;;;;;;;39.50;24.77;;;9.20;97.50;;;;;;5082842;28;20025;-59
2024/01/26 06:33:16;;;;;;;47.13;24.95;;;9.20;97.40;;;;;;5083534;28;20372;-59
2024/01/26 06:35:42;;;;;;;39.65;23.60;;;9.20;97.40;;;;;;5063428;28;20063;-58
2024/01/26 06:38:12;;;;;;;40.95;22.15;;;9.20;97.50;;;;;;5085949;28;20420;-59
2024/01/26 06:40:40;;;;;;;38.75;22.80;;;9.20;97.40;;;;;;5092205;28;20123;-62
2024/01/26 06:43:08;;;;;;;48.92;25.90;;;9.20;97.50;;;;;;5081612;28;20039;-62
2024/01/26 06:45:35;;;;;;;39.67;23.42;;;9.30;97.50;;;;;;5082318;28;20021;-60
2024/01/26 06:48:02;;;;;;;35.33;22.95;;;9.30;97.50;;;;;;5081424;28;20020;-58
2024/01/26 06:50:29;;;;;;;30.83;21.67;;;9.30;97.40;;;;;;5081313;28;20623;-59
2024/01/26 06:52:55;;;;;;;33.97;21.02;;;9.30;97.50;;;;;;5082778;28;20138;-59
2024/01/26 06:55:22;;;;;;;35.08;22.30;;;9.30;97.50;;;;;;5082036;28;20128;-57
2024/01/26 06:57:49;;;;;;;31.88;20.63;;;9.30;97.50;;;;;;5081404;28;20032;-58
2024/01/26 07:00:17;;;;;;;34.85;21.85;;;9.40;97.50;;;;;;5080505;28;20535;-58
2024/01/26 07:02:42;;;;;;;34.70;23.42;;;9.40;97.50;;;;;;5065246;28;20420;-57
2024/01/26 07:05:09;;;;;;;38.17;23.50;;;9.40;97.50;;;;;;5083391;28;20037;-58
2024/01/26 07:07:36;;;;;;;38.25;24.50;;;9.40;97.50;;;;;;5080553;28;20029;-55
2024/01/26 07:10:04;;;;;;;33.10;21.83;;;9.50;97.50;;;;;;5082942;28;20341;-59
2024/01/26 07:12:30;;;;;;;40.70;24.83;;;9.50;97.50;;;;;;5080811;28;20020;-58
2024/01/26 07:14:56;;;;;;;36.47;22.77;;;9.50;97.50;;;;;;5072220;28;20621;-57
2024/01/26 07:17:26;;;;;;;34.38;23.48;;;9.50;97.50;;;;;;5056663;28;20040;-58
2024/01/26 07:19:53;;;;;;;32.97;22.40;;;9.60;97.50;;;;;;5083392;28;20102;-60
2024/01/26 07:22:19;;;;;;;33.08;22.20;;;9.60;97.50;;;;;;5082577;28;20051;-65
2024/01/26 07:24:45;;;;;;;34.90;22.38;;;9.60;97.40;;;;;;5088677;28;20441;-64
2024/01/26 07:27:14;;;;;;;34.38;22.10;;;9.60;97.40;;;;;;5081546;28;20032;-59
2024/01/26 07:29:40;;;;;;;35.80;23.73;;;9.60;97.50;;;;;;5080439;28;20448;-61
2024/01/26 07:32:07;;;;;;;32.80;22.58;;;9.70;97.40;;;;;;5092175;28;20616;-62
2024/01/26 07:34:34;;;;;;;29.35;20.58;;;9.70;97.40;;;;;;5091991;28;20020;-62
2024/01/26 07:37:01;;;;;;;31.38;21.10;;;9.70;97.40;;;;;;5088609;28;20111;-62
2024/01/26 07:39:32;;;;;;;30.65;19.83;;;9.70;97.40;;;;;;5088018;28;20087;-61
2024/01/26 07:41:59;;;;;;;27.83;20.80;;;9.70;97.40;;;;;;5094680;28;20028;-61
2024/01/26 07:44:26;;;;;;;27.52;18.17;;;9.70;97.50;;;;;;5094441;28;20042;-62
2024/01/26 07:46:51;;;;;;;28.35;18.55;;;9.70;97.50;;;;;;5094270;28;20326;-62
2024/01/26 07:49:18;;;;;;;28.88;19.83;;;9.70;97.50;;;;;;5057320;28;20035;-61
2024/01/26 07:51:45;;;;;;;28.02;20.02;;;9.70;97.60;;;;;;5071119;28;20452;-63
2024/01/26 07:54:12;;;;;;;25.42;17.13;;;9.80;97.60;;;;;;5092227;28;20117;-61
2024/01/26 07:56:39;;;;;;;22.67;16.30;;;9.80;97.60;;;;;;5089086;28;20020;-61
2024/01/26 07:59:08;;;;;;;21.98;13.98;;;9.80;97.60;;;;;;5087154;28;20024;-62
2024/01/26 08:01:37;;;;;;;22.08;15.30;;;9.90;97.60;;;;;;5088426;28;20032;-61
2024/01/26 08:04:06;;;;;;;26.15;15.85;;;9.90;97.60;;;;;;5087925;28;20044;-62
2024/01/26 08:06:36;;;;;;;21.63;14.40;;;9.90;97.50;;;;;;5092396;28;20115;-61
2024/01/26 08:09:02;;;;;;;19.60;13.55;;;9.90;97.60;;;;;;5073278;28;20031;-60
2024/01/26 08:11:28;;;;;;;19.63;12.10;;;9.90;97.60;;;;;;5093338;28;20409;-61
2024/01/26 08:13:55;;;;;;;18.05;11.52;;;9.90;97.70;;;;;;5094114;28;20027;-61
2024/01/26 08:16:24;;;;;;;14.85;10.32;;;10.00;97.70;;;;;;5090718;28;20089;-61
2024/01/26 08:18:50;;;;;;;21.13;10.77;;;10.00;97.60;;;;;;5093316;28;20456;-61
2024/01/26 08:21:17;;;;;;;19.70;11.15;;;10.00;97.60;;;;;;5093680;28;20301;-61
2024/01/26 08:23:44;;;;;;;14.98;10.45;;;10.10;97.70;;;;;;5093860;28;20035;-60
2024/01/26 08:26:10;;;;;;;15.77;9.35;;;10.10;97.70;;;;;;5086501;28;20032;-60
2024/01/26 08:28:36;;;;;;;13.90;9.45;;;10.20;97.80;;;;;;5092483;28;20352;-61
2024/01/26 08:31:08;;;;;;;12.27;8.70;;;10.20;97.70;;;;;;5092350;28;20111;-59
2024/01/26 08:33:34;;;;;;;13.30;8.73;;;10.20;97.60;;;;;;5091383;28;20020;-60
2024/01/26 08:36:01;;;;;;;11.95;8.32;;;10.20;97.60;;;;;;5071807;28;20032;-59
2024/01/26 08:38:27;;;;;;;11.50;7.78;;;10.30;97.60;;;;;;5072651;28;20028;-59
2024/01/26 08:40:54;;;;;;;13.63;8.35;;;10.20;97.60;;;;;;5090280;28;20024;-58
2024/01/26 08:43:19;;;;;;;11.77;7.95;;;10.20;97.60;;;;;;5088268;28;20751;-55
2024/01/26 08:45:47;;;;;;;9.80;7.05;;;10.20;97.60;;;;;;5092244;28;20057;-55
2024/01/26 08:48:14;;;;;;;8.80;7.00;;;10.30;97.60;;;;;;5073491;28;20329;-56
2024/01/26 08:50:43;;;;;;;9.30;6.82;;;10.30;97.60;;;;;;5091037;28;20403;-58
2024/01/26 08:53:10;;;;;;;9.10;6.70;;;10.40;97.60;;;;;;5067760;28;20028;-59
2024/01/26 08:55:40;;;;;;;10.30;7.18;;;10.40;97.60;;;;;;5088204;28;20247;-58
2024/01/26 08:58:06;;;;;;;9.00;6.78;;;10.40;97.50;;;;;;5090328;28;20379;-59
2024/01/26 09:00:34;;;;;;;11.55;7.45;;;10.40;97.50;;;;;;5089589;28;20150;-58
2024/01/26 09:03:03;;;;;;;9.95;6.40;;;10.40;97.50;;;;;;5090701;28;20066;-57
2024/01/26 09:05:30;;;;;;;8.75;6.50;;;10.40;97.40;;;;;;5065516;28;20547;-58
2024/01/26 09:07:57;;;;;;;7.28;5.78;;;10.40;97.50;;;;;;5090097;28;20093;-57
2024/01/26 09:10:24;;;;;;;9.38;5.78;;;10.40;97.50;;;;;;5088387;28;20020;-55
2024/01/26 09:12:51;;;;;;;8.10;5.85;;;10.40;97.40;;;;;;5091149;28;20035;-56
2024/01/26 09:15:18;;;;;;;7.47;5.03;;;10.40;97.40;;;;;;5091916;28;20143;-54
2024/01/26 09:17:44;;;;;;;8.40;5.65;;;10.40;97.40;;;;;;5089470;28;20042;-51
2024/01/26 09:20:12;;;;;;;7.78;5.65;;;10.40;97.40;;;;;;5089761;28;20098;-51
2024/01/26 09:22:39;;;;;;;7.20;5.15;;;10.40;97.40;;;;;;5091009;28;20104;-55
2024/01/26 09:25:05;;;;;;;6.63;4.80;;;10.40;97.40;;;;;;5092513;28;20034;-55
2024/01/26 09:27:34;;;;;;;6.45;5.05;;;10.40;97.40;;;;;;5090244;28;20448;-63
2024/01/26 09:30:01;;;;;;;7.93;5.28;;;10.40;97.40;;;;;;5090859;28;20040;-62
2024/01/26 09:32:28;;;;;;;5.68;3.97;;;10.40;97.40;;;;;;5091344;28;20024;-61
2024/01/26 09:35:01;;;;;;;4.63;3.50;;;10.40;97.40;;;;;;5091428;28;20433;-62
2024/01/26 09:37:28;;;;;;;7.07;3.72;;;10.40;97.40;;;;;;5091762;28;20028;-62
2024/01/26 09:39:54;;;;;;;5.25;3.40;;;10.40;97.40;;;;;;5091437;28;20078;-61
2024/01/26 09:42:23;;;;;;;4.32;3.08;;;10.40;97.40;;;;;;5092015;28;20089;-62
2024/01/26 09:44:51;;;;;;;3.90;2.60;;;10.40;97.40;;;;;;5091633;28;20453;-62
2024/01/26 09:47:19;;;;;;;5.10;3.03;;;10.40;97.40;;;;;;5092240;28;20036;-61
2024/01/26 09:49:55;;;;;;;5.63;3.40;;;10.40;97.40;;;;;;5091732;28;20008;-61
2024/01/26 09:52:23;;;;;;;4.30;3.15;;;10.40;97.40;;;;;;5063211;28;20020;-62
2024/01/26 09:54:51;;;;;;;6.40;3.45;;;10.40;97.40;;;;;;5088822;28;20028;-62
2024/01/26 09:57:20;;;;;;;6.10;3.88;;;10.40;97.40;;;;;;5089982;28;20337;-61
2024/01/26 09:59:50;;;;;;;6.22;3.53;;;10.40;97.50;;;;;;5089829;28;20016;-61
2024/01/26 10:02:18;;;;;;;6.50;3.80;;;10.40;97.40;;;;;;5067474;28;20039;-61
2024/01/26 10:04:44;;;;;;;5.95;2.80;;;10.40;97.40;;;;;;5089556;28;20453;-62
2024/01/26 10:07:14;;;;;;;3.95;1.60;;;10.40;97.40;;;;;;5059262;28;20063;-58
2024/01/26 10:09:41;;;;;;;5.80;1.70;;;10.00;96.70;;;;;;5090376;28;20039;-60
2024/01/26 10:12:09;;;;;;;8.45;3.25;;;9.70;96.50;;;;;;5091684;28;20070;-58
2024/01/26 10:14:41;;;;;;;11.15;3.00;;;9.60;96.40;;;;;;5091066;28;20107;-57
2024/01/26 10:17:15;;;;;;;10.05;2.75;;;9.50;96.20;;;;;;5091060;28;20074;-56
2024/01/26 10:19:41;;;;;;;13.52;2.78;;;9.50;95.90;;;;;;5089266;28;20027;-55
2024/01/26 10:22:08;;;;;;;17.48;3.50;;;9.50;95.50;;;;;;5089524;28;20048;-52
2024/01/26 10:24:35;;;;;;;13.18;3.47;;;9.40;95.00;;;;;;5072246;28;20128;-52
2024/01/26 10:27:02;;;;;;;18.10;3.90;;;9.40;94.40;;;;;;5091401;28;20048;-54
2024/01/26 10:29:29;;;;;;;18.83;3.67;;;9.40;94.10;;;;;;5090558;28;20013;-54
2024/01/26 10:31:56;;;;;;;20.42;4.68;;;9.30;94.00;;;;;;5091279;28;20136;-49
2024/01/26 10:34:25;;;;;;;16.85;4.10;;;9.30;94.00;;;;;;5087697;28;20050;-48
2024/01/26 10:36:56;;;;;;;17.95;4.20;;;9.30;93.70;;;;;;5091119;28;20024;-52
2024/01/26 10:39:24;;;;;;;24.40;4.43;;;9.20;93.40;;;;;;5091009;28;20459;-51
2024/01/26 10:41:52;;;;;;;24.88;5.95;;;9.10;93.00;;;;;;5072747;28;20066;-52
2024/01/26 10:44:20;;;;;;;20.92;4.68;;;9.00;92.70;;;;;;5073343;28;20043;-52
2024/01/26 10:46:48;;;;;;;26.25;6.63;;;9.00;92.60;;;;;;5090120;28;20031;-52
2024/01/26 10:49:15;;;;;;;19.70;5.43;;;8.90;92.70;;;;;;5071350;28;20021;-53
2024/01/26 10:51:47;;;;;;;31.95;4.82;;;8.80;93.00;;;;;;5088802;28;20039;-54
2024/01/26 10:54:14;;;;;;;26.27;4.65;;;8.60;93.10;;;;;;5088655;28;20059;-54
2024/01/26 10:56:40;;;;;;;30.48;7.70;;;8.60;93.10;;;;;;5089179;28;20036;-48
2024/01/26 10:59:12;;;;;;;17.30;3.83;;;8.40;93.10;;;;;;5089638;28;20036;-55
2024/01/26 11:01:40;;;;;;;20.95;4.65;;;8.40;92.90;;;;;;5072342;28;20028;-51
2024/01/26 11:04:12;;;;;;;21.83;4.13;;;8.40;92.70;;;;;;5089089;28;20031;-48
2024/01/26 11:06:42;;;;;;;15.98;3.45;;;8.20;92.20;;;;;;5089748;28;20078;-48
2024/01/26 11:09:11;;;;;;;18.77;4.95;;;8.20;92.00;;;;;;5092015;28;20492;-52
2024/01/26 11:11:41;;;;;;;28.08;5.50;;;8.20;91.70;;;;;;5091519;28;20024;-53
2024/01/26 11:14:11;;;;;;;27.60;4.88;;;8.10;91.60;;;;;;5069023;28;20412;-51
2024/01/26 11:16:47;;;;;;;20.23;4.15;;;8.20;91.30;;;;;;5094517;28;20032;-52
2024/01/26 11:19:22;;;;;;;17.17;5.15;;;8.20;91.30;;;;;;5095113;28;20227;-54
2024/01/26 11:21:51;;;;;;;28.35;5.03;;;8.40;91.60;;;;;;5097102;28;20040;-52
2024/01/26 11:24:21;;;;;;;30.63;6.22;;;8.40;91.70;;;;;;5112178;28;20027;-52
2024/01/26 11:26:58;;;;;;;24.65;5.32;;;8.40;92.10;;;;;;5108114;28;20034;-48
2024/01/26 11:29:40;;;;;;;25.42;5.70;;;8.40;92.20;;;;;;5115515;28;20035;-51
2024/01/26 11:32:21;;;;;;;21.27;5.38;;;8.50;92.10;;;;;;5114970;28;20093;-53
2024/01/26 11:34:59;;;;;;;27.50;7.78;;;8.50;91.90;;;;;;5097736;28;20044;-51
2024/01/26 11:37:27;;;;;;;24.80;5.18;;;8.50;91.40;;;;;;5114360;28;20031;-54
2024/01/26 11:39:54;;;;;;;31.35;6.20;;;8.50;91.40;;;;;;5115133;28;20501;-52
2024/01/26 11:42:23;;;;;;;20.77;6.78;;;8.50;91.00;;;;;;5111889;28;20027;-53
2024/01/26 11:45:11;;;;;;;26.88;4.90;;;8.50;91.00;;;;;;5109366;28;20031;-48
2024/01/26 11:47:39;;;;;;;27.73;4.95;;;8.50;90.90;;;;;;5109252;28;20103;-51
2024/01/26 11:50:10;;;;;;;26.15;5.13;;;8.60;90.90;;;;;;5110691;28;20085;-51
2024/01/26 11:52:39;;;;;;;19.52;5.32;;;8.60;90.70;;;;;;5112121;28;20386;-51
2024/01/26 11:55:07;;;;;;;22.88;5.13;;;8.50;90.00;;;;;;5113619;28;20100;-48
2024/01/26 11:57:33;;;;;;;28.77;5.22;;;8.50;90.10;;;;;;5112698;28;20118;-51
2024/01/26 11:59:59;;;;;;;19.95;4.70;;;8.50;89.80;;;;;;5118821;27;20111;-48
2024/01/26 12:02:27;;;;;;;18.17;3.55;;;8.50;89.60;;;;;;5114470;28;20102;-48
2024/01/26 12:04:54;;;;;;;24.75;4.53;;;8.40;89.30;;;;;;5114416;28;20030;-48
2024/01/26 12:07:22;;;;;;;19.52;4.88;;;8.40;89.00;;;;;;5106856;28;20095;-49
2024/01/26 12:09:48;;;;;;;18.67;4.57;;;8.30;88.90;;;;;;5112632;28;20059;-50
2024/01/26 12:12:16;;;;;;;24.77;3.95;;;8.30;88.90;;;;;;5112722;28;20035;-48
2024/01/26 12:14:43;;;;;;;28.05;5.63;;;8.20;88.90;;;;;;5094377;28;20039;-47
2024/01/26 12:17:12;;;;;;;15.95;4.70;;;8.20;88.90;;;;;;5113680;28;20019;-47
2024/01/26 12:19:38;;;;;;;24.42;4.55;;;8.30;88.90;;;;;;5112448;28;20122;-48
2024/01/26 12:22:12;;;;;;;23.42;4.45;;;8.30;88.80;;;;;;5112588;28;20051;-49
2024/01/26 12:24:39;;;;;;;24.55;4.28;;;8.20;88.80;;;;;;5113547;28;20035;-48
2024/01/26 12:27:06;;;;;;;26.50;5.72;;;8.20;89.10;;;;;;5114058;28;20325;-47
2024/01/26 12:29:35;;;;;;;25.50;5.18;;;8.20;89.10;;;;;;5113402;28;20024;-49
2024/01/26 12:32:12;;;;;;;25.13;5.43;;;8.20;89.20;;;;;;5095132;28;20016;-50
2024/01/26 12:34:42;;;;;;;21.98;5.75;;;8.20;88.80;;;;;;5112675;28;20110;-53
2024/01/26 12:37:12;;;;;;;;;;;8.20;88.60;;;;;;5113467;28;20027;-50
2024/01/26 12:39:38;;;;;;;26.20;4.90;;;8.20;88.40;;;;;;5110902;28;19985;-48
2024/01/26 12:42:05;;;;;;;21.35;6.82;;;8.10;88.40;;;;;;5113977;28;20038;-51